sensor_id;sensor_type;location;lat;lon;timestamp;P1;durP1;ratioP1;P2;durP2;ratioP2
13349;SDS011;6744;53.190;6.576;2022-09-09T00:02:10;7.63;;;6.93;;
13349;SDS011;6744;53.190;6.576;2022-09-09T00:04:38;9.10;;;8.30;;
13349;SDS011;6744;53.190;6.576;2022-09-09T00:07:15;9.30;;;8.30;;
13349;SDS011;6744;53.190;6.576;2022-09-09T00:14:55;8.83;;;7.90;;
13349;SDS011;6744;53.190;6.576;2022-09-09T00:20:03;9.27;;;8.47;;
13349;SDS011;6744;53.190;6.576;2022-09-09T00:22:37;8.27;;;7.43;;
13349;SDS011;6744;53.190;6.576;2022-09-09T00:25:13;8.70;;;7.93;;
13349;SDS011;6744;53.190;6.576;2022-09-09T00:32:36;9.17;;;8.27;;
13349;SDS011;6744;53.190;6.576;2022-09-09T00:35:44;8.73;;;7.93;;
13349;SDS011;6744;53.190;6.576;2022-09-09T00:37:56;8.77;;;7.67;;
13349;SDS011;6744;53.190;6.576;2022-09-09T00:42:48;9.40;;;8.50;;
13349;SDS011;6744;53.190;6.576;2022-09-09T00:45:33;8.33;;;7.63;;
13349;SDS011;6744;53.190;6.576;2022-09-09T00:48:10;8.00;;;7.30;;
13349;SDS011;6744;53.190;6.576;2022-09-09T00:53:31;7.97;;;7.10;;
13349;SDS011;6744;53.190;6.576;2022-09-09T00:58:39;7.77;;;7.03;;
13349;SDS011;6744;53.190;6.576;2022-09-09T01:01:11;7.33;;;6.63;;
13349;SDS011;6744;53.190;6.576;2022-09-09T01:03:39;6.80;;;6.23;;
13349;SDS011;6744;53.190;6.576;2022-09-09T01:14:48;7.00;;;6.30;;
13349;SDS011;6744;53.190;6.576;2022-09-09T01:17:19;7.93;;;7.00;;
13349;SDS011;6744;53.190;6.576;2022-09-09T01:20:25;7.37;;;6.67;;
13349;SDS011;6744;53.190;6.576;2022-09-09T01:28:40;8.70;;;7.63;;
13349;SDS011;6744;53.190;6.576;2022-09-09T01:31:09;8.60;;;7.80;;
13349;SDS011;6744;53.190;6.576;2022-09-09T01:33:37;8.17;;;7.47;;
13349;SDS011;6744;53.190;6.576;2022-09-09T01:38:43;8.40;;;7.70;;
13349;SDS011;6744;53.190;6.576;2022-09-09T01:41:08;8.40;;;7.60;;
13349;SDS011;6744;53.190;6.576;2022-09-09T01:43:33;7.43;;;6.83;;
13349;SDS011;6744;53.190;6.576;2022-09-09T01:45:59;7.40;;;6.80;;
13349;SDS011;6744;53.190;6.576;2022-09-09T01:48:25;7.20;;;6.50;;
13349;SDS011;6744;53.190;6.576;2022-09-09T01:50:51;7.83;;;7.13;;
13349;SDS011;6744;53.190;6.576;2022-09-09T01:53:17;7.87;;;7.20;;
13349;SDS011;6744;53.190;6.576;2022-09-09T01:55:46;7.63;;;6.93;;
13349;SDS011;6744;53.190;6.576;2022-09-09T01:58:34;7.70;;;7.00;;
13349;SDS011;6744;53.190;6.576;2022-09-09T02:01:55;7.63;;;6.90;;
13349;SDS011;6744;53.190;6.576;2022-09-09T02:04:01;7.97;;;7.27;;
13349;SDS011;6744;53.190;6.576;2022-09-09T02:06:36;9.37;;;8.10;;
13349;SDS011;6744;53.190;6.576;2022-09-09T02:09:04;9.07;;;8.17;;
13349;SDS011;6744;53.190;6.576;2022-09-09T02:11:31;8.03;;;7.23;;
13349;SDS011;6744;53.190;6.576;2022-09-09T02:14:00;8.23;;;7.43;;
13349;SDS011;6744;53.190;6.576;2022-09-09T02:19:06;9.23;;;8.33;;
13349;SDS011;6744;53.190;6.576;2022-09-09T02:21:38;9.13;;;8.23;;
13349;SDS011;6744;53.190;6.576;2022-09-09T02:24:05;8.83;;;8.03;;
13349;SDS011;6744;53.190;6.576;2022-09-09T02:26:34;10.77;;;9.67;;
13349;SDS011;6744;53.190;6.576;2022-09-09T02:29:04;12.00;;;8.97;;
13349;SDS011;6744;53.190;6.576;2022-09-09T02:31:33;11.23;;;9.50;;
13349;SDS011;6744;53.190;6.576;2022-09-09T02:34:00;10.50;;;8.23;;
13349;SDS011;6744;53.190;6.576;2022-09-09T02:36:27;9.13;;;8.23;;
13349;SDS011;6744;53.190;6.576;2022-09-09T02:38:55;10.37;;;9.37;;
13349;SDS011;6744;53.190;6.576;2022-09-09T02:41:24;9.93;;;8.93;;
13349;SDS011;6744;53.190;6.576;2022-09-09T02:43:52;9.93;;;8.93;;
13349;SDS011;6744;53.190;6.576;2022-09-09T02:46:37;10.07;;;8.77;;
13349;SDS011;6744;53.190;6.576;2022-09-09T02:49:36;10.73;;;8.57;;
13349;SDS011;6744;53.190;6.576;2022-09-09T02:52:20;8.77;;;8.07;;
13349;SDS011;6744;53.190;6.576;2022-09-09T02:54:51;9.10;;;8.20;;
13349;SDS011;6744;53.190;6.576;2022-09-09T02:57:23;11.20;;;8.97;;
13349;SDS011;6744;53.190;6.576;2022-09-09T02:59:52;8.90;;;8.00;;
13349;SDS011;6744;53.190;6.576;2022-09-09T03:02:18;10.13;;;9.10;;
13349;SDS011;6744;53.190;6.576;2022-09-09T03:04:43;9.40;;;8.33;;
13349;SDS011;6744;53.190;6.576;2022-09-09T03:07:09;9.40;;;8.50;;
13349;SDS011;6744;53.190;6.576;2022-09-09T03:09:35;9.50;;;7.80;;
13349;SDS011;6744;53.190;6.576;2022-09-09T03:12:01;9.07;;;8.17;;
13349;SDS011;6744;53.190;6.576;2022-09-09T03:14:29;9.17;;;7.93;;
13349;SDS011;6744;53.190;6.576;2022-09-09T03:16:55;9.23;;;8.33;;
13349;SDS011;6744;53.190;6.576;2022-09-09T03:19:22;8.40;;;7.60;;
13349;SDS011;6744;53.190;6.576;2022-09-09T03:21:48;7.73;;;6.93;;
13349;SDS011;6744;53.190;6.576;2022-09-09T03:24:14;8.63;;;7.13;;
13349;SDS011;6744;53.190;6.576;2022-09-09T03:26:40;7.87;;;6.97;;
13349;SDS011;6744;53.190;6.576;2022-09-09T03:29:06;8.63;;;6.83;;
13349;SDS011;6744;53.190;6.576;2022-09-09T03:31:35;8.40;;;7.00;;
13349;SDS011;6744;53.190;6.576;2022-09-09T03:34:01;7.67;;;6.30;;
13349;SDS011;6744;53.190;6.576;2022-09-09T03:36:27;7.67;;;6.13;;
13349;SDS011;6744;53.190;6.576;2022-09-09T03:38:53;6.63;;;5.97;;
13349;SDS011;6744;53.190;6.576;2022-09-09T03:41:20;8.13;;;6.10;;
13349;SDS011;6744;53.190;6.576;2022-09-09T03:43:48;5.90;;;5.40;;
13349;SDS011;6744;53.190;6.576;2022-09-09T03:46:17;5.93;;;5.43;;
13349;SDS011;6744;53.190;6.576;2022-09-09T03:48:43;6.37;;;5.20;;
13349;SDS011;6744;53.190;6.576;2022-09-09T03:51:09;5.17;;;4.60;;
13349;SDS011;6744;53.190;6.576;2022-09-09T03:53:35;5.03;;;4.33;;
13349;SDS011;6744;53.190;6.576;2022-09-09T03:56:03;5.23;;;4.67;;
13349;SDS011;6744;53.190;6.576;2022-09-09T03:58:30;5.53;;;4.10;;
13349;SDS011;6744;53.190;6.576;2022-09-09T04:00:56;6.33;;;4.00;;
13349;SDS011;6744;53.190;6.576;2022-09-09T04:03:23;4.97;;;3.90;;
13349;SDS011;6744;53.190;6.576;2022-09-09T04:05:50;3.77;;;3.43;;
13349;SDS011;6744;53.190;6.576;2022-09-09T04:08:16;4.10;;;3.07;;
13349;SDS011;6744;53.190;6.576;2022-09-09T04:10:41;4.90;;;3.30;;
13349;SDS011;6744;53.190;6.576;2022-09-09T04:13:07;4.63;;;2.80;;
13349;SDS011;6744;53.190;6.576;2022-09-09T04:15:32;5.40;;;3.10;;
13349;SDS011;6744;53.190;6.576;2022-09-09T04:18:00;4.73;;;2.73;;
13349;SDS011;6744;53.190;6.576;2022-09-09T04:20:25;4.17;;;2.53;;
13349;SDS011;6744;53.190;6.576;2022-09-09T04:22:51;5.47;;;2.70;;
13349;SDS011;6744;53.190;6.576;2022-09-09T04:25:16;6.97;;;2.97;;
13349;SDS011;6744;53.190;6.576;2022-09-09T04:27:41;4.63;;;2.77;;
13349;SDS011;6744;53.190;6.576;2022-09-09T04:30:07;5.17;;;2.70;;
13349;SDS011;6744;53.190;6.576;2022-09-09T04:32:33;4.43;;;2.27;;
13349;SDS011;6744;53.190;6.576;2022-09-09T04:34:59;4.07;;;3.00;;
13349;SDS011;6744;53.190;6.576;2022-09-09T04:37:24;4.63;;;2.57;;
13349;SDS011;6744;53.190;6.576;2022-09-09T04:39:50;5.37;;;3.10;;
13349;SDS011;6744;53.190;6.576;2022-09-09T04:42:15;5.20;;;3.23;;
13349;SDS011;6744;53.190;6.576;2022-09-09T04:44:42;4.03;;;3.30;;
13349;SDS011;6744;53.190;6.576;2022-09-09T04:47:08;5.40;;;3.90;;
13349;SDS011;6744;53.190;6.576;2022-09-09T04:49:34;4.77;;;3.20;;
13349;SDS011;6744;53.190;6.576;2022-09-09T04:52:00;6.77;;;4.07;;
13349;SDS011;6744;53.190;6.576;2022-09-09T04:54:26;5.93;;;3.90;;
13349;SDS011;6744;53.190;6.576;2022-09-09T04:56:52;4.67;;;4.00;;
13349;SDS011;6744;53.190;6.576;2022-09-09T04:59:17;6.27;;;4.80;;
13349;SDS011;6744;53.190;6.576;2022-09-09T05:01:43;6.43;;;4.27;;
13349;SDS011;6744;53.190;6.576;2022-09-09T05:04:08;7.50;;;4.53;;
13349;SDS011;6744;53.190;6.576;2022-09-09T05:06:34;7.77;;;4.60;;
13349;SDS011;6744;53.190;6.576;2022-09-09T05:09:01;5.40;;;4.90;;
13349;SDS011;6744;53.190;6.576;2022-09-09T05:11:27;6.63;;;5.30;;
13349;SDS011;6744;53.190;6.576;2022-09-09T05:13:55;6.70;;;5.13;;
13349;SDS011;6744;53.190;6.576;2022-09-09T05:16:21;6.03;;;5.43;;
13349;SDS011;6744;53.190;6.576;2022-09-09T05:18:47;5.67;;;5.17;;
13349;SDS011;6744;53.190;6.576;2022-09-09T05:21:14;6.13;;;5.53;;
13349;SDS011;6744;53.190;6.576;2022-09-09T05:23:40;7.77;;;5.80;;
13349;SDS011;6744;53.190;6.576;2022-09-09T05:26:06;6.00;;;5.00;;
13349;SDS011;6744;53.190;6.576;2022-09-09T05:28:34;6.83;;;5.27;;
13349;SDS011;6744;53.190;6.576;2022-09-09T05:31:01;7.10;;;6.27;;
13349;SDS011;6744;53.190;6.576;2022-09-09T05:33:29;8.87;;;7.30;;
13349;SDS011;6744;53.190;6.576;2022-09-09T05:36:00;7.53;;;6.60;;
13349;SDS011;6744;53.190;6.576;2022-09-09T05:38:28;6.93;;;5.97;;
13349;SDS011;6744;53.190;6.576;2022-09-09T05:40:54;10.50;;;7.80;;
13349;SDS011;6744;53.190;6.576;2022-09-09T05:43:21;8.63;;;7.40;;
13349;SDS011;6744;53.190;6.576;2022-09-09T05:45:47;9.13;;;7.37;;
13349;SDS011;6744;53.190;6.576;2022-09-09T05:48:13;8.20;;;7.40;;
13349;SDS011;6744;53.190;6.576;2022-09-09T05:50:42;8.30;;;7.60;;
13349;SDS011;6744;53.190;6.576;2022-09-09T05:53:10;8.87;;;7.97;;
13349;SDS011;6744;53.190;6.576;2022-09-09T05:55:35;9.37;;;7.73;;
13349;SDS011;6744;53.190;6.576;2022-09-09T05:58:01;8.83;;;7.93;;
13349;SDS011;6744;53.190;6.576;2022-09-09T06:00:26;8.43;;;7.53;;
13349;SDS011;6744;53.190;6.576;2022-09-09T06:02:52;9.00;;;8.10;;
13349;SDS011;6744;53.190;6.576;2022-09-09T06:05:18;8.90;;;8.00;;
13349;SDS011;6744;53.190;6.576;2022-09-09T06:07:43;9.17;;;8.37;;
13349;SDS011;6744;53.190;6.576;2022-09-09T06:10:09;8.50;;;7.70;;
13349;SDS011;6744;53.190;6.576;2022-09-09T06:12:35;9.53;;;8.60;;
13349;SDS011;6744;53.190;6.576;2022-09-09T06:15:00;8.10;;;7.30;;
13349;SDS011;6744;53.190;6.576;2022-09-09T06:17:26;8.50;;;7.70;;
13349;SDS011;6744;53.190;6.576;2022-09-09T06:19:51;9.57;;;8.57;;
13349;SDS011;6744;53.190;6.576;2022-09-09T06:22:17;8.77;;;7.87;;
13349;SDS011;6744;53.190;6.576;2022-09-09T06:24:43;9.70;;;8.47;;
13349;SDS011;6744;53.190;6.576;2022-09-09T06:27:09;8.43;;;7.50;;
13349;SDS011;6744;53.190;6.576;2022-09-09T06:29:35;8.80;;;7.20;;
13349;SDS011;6744;53.190;6.576;2022-09-09T06:32:01;8.60;;;7.80;;
13349;SDS011;6744;53.190;6.576;2022-09-09T06:34:27;7.97;;;7.27;;
13349;SDS011;6744;53.190;6.576;2022-09-09T06:36:53;8.30;;;7.50;;
13349;SDS011;6744;53.190;6.576;2022-09-09T06:39:18;8.83;;;7.93;;
13349;SDS011;6744;53.190;6.576;2022-09-09T06:41:44;7.93;;;7.13;;
13349;SDS011;6744;53.190;6.576;2022-09-09T06:44:09;7.10;;;6.37;;
13349;SDS011;6744;53.190;6.576;2022-09-09T06:46:36;7.37;;;6.67;;
13349;SDS011;6744;53.190;6.576;2022-09-09T06:49:03;7.80;;;6.90;;
13349;SDS011;6744;53.190;6.576;2022-09-09T06:51:33;8.60;;;7.77;;
13349;SDS011;6744;53.190;6.576;2022-09-09T06:54:00;7.17;;;6.47;;
13349;SDS011;6744;53.190;6.576;2022-09-09T06:58:53;7.27;;;6.57;;
13349;SDS011;6744;53.190;6.576;2022-09-09T07:01:20;8.10;;;7.33;;
13349;SDS011;6744;53.190;6.576;2022-09-09T07:03:47;7.73;;;7.03;;
13349;SDS011;6744;53.190;6.576;2022-09-09T07:06:16;7.37;;;6.67;;
13349;SDS011;6744;53.190;6.576;2022-09-09T07:08:44;6.20;;;5.70;;
13349;SDS011;6744;53.190;6.576;2022-09-09T07:11:13;7.43;;;6.73;;
13349;SDS011;6744;53.190;6.576;2022-09-09T07:13:38;7.37;;;6.57;;
13349;SDS011;6744;53.190;6.576;2022-09-09T07:16:05;7.40;;;6.70;;
13349;SDS011;6744;53.190;6.576;2022-09-09T07:18:35;7.97;;;6.83;;
13349;SDS011;6744;53.190;6.576;2022-09-09T07:21:01;7.17;;;5.90;;
13349;SDS011;6744;53.190;6.576;2022-09-09T07:23:28;6.87;;;6.17;;
13349;SDS011;6744;53.190;6.576;2022-09-09T07:25:53;9.60;;;7.90;;
13349;SDS011;6744;53.190;6.576;2022-09-09T07:28:19;7.57;;;6.83;;
13349;SDS011;6744;53.190;6.576;2022-09-09T07:33:21;7.10;;;6.40;;
13349;SDS011;6744;53.190;6.576;2022-09-09T07:35:46;7.20;;;6.57;;
13349;SDS011;6744;53.190;6.576;2022-09-09T07:38:11;7.30;;;6.60;;
13349;SDS011;6744;53.190;6.576;2022-09-09T07:40:37;9.17;;;7.60;;
13349;SDS011;6744;53.190;6.576;2022-09-09T07:43:02;6.80;;;6.10;;
13349;SDS011;6744;53.190;6.576;2022-09-09T07:45:28;6.30;;;5.70;;
13349;SDS011;6744;53.190;6.576;2022-09-09T07:47:53;6.67;;;5.97;;
13349;SDS011;6744;53.190;6.576;2022-09-09T07:50:21;6.60;;;6.00;;
13349;SDS011;6744;53.190;6.576;2022-09-09T07:52:48;7.43;;;6.73;;
13349;SDS011;6744;53.190;6.576;2022-09-09T07:55:13;7.10;;;6.50;;
13349;SDS011;6744;53.190;6.576;2022-09-09T07:57:39;6.70;;;6.00;;
13349;SDS011;6744;53.190;6.576;2022-09-09T08:00:05;7.53;;;5.80;;
13349;SDS011;6744;53.190;6.576;2022-09-09T08:02:31;8.00;;;6.90;;
13349;SDS011;6744;53.190;6.576;2022-09-09T08:04:56;8.20;;;6.47;;
13349;SDS011;6744;53.190;6.576;2022-09-09T08:07:22;6.60;;;6.00;;
13349;SDS011;6744;53.190;6.576;2022-09-09T08:09:48;6.60;;;5.40;;
13349;SDS011;6744;53.190;6.576;2022-09-09T08:12:14;6.97;;;5.77;;
13349;SDS011;6744;53.190;6.576;2022-09-09T08:14:39;6.87;;;5.47;;
13349;SDS011;6744;53.190;6.576;2022-09-09T08:17:05;6.93;;;5.67;;
13349;SDS011;6744;53.190;6.576;2022-09-09T08:19:30;7.57;;;6.23;;
13349;SDS011;6744;53.190;6.576;2022-09-09T08:21:59;6.60;;;5.17;;
13349;SDS011;6744;53.190;6.576;2022-09-09T08:24:26;6.87;;;5.07;;
13349;SDS011;6744;53.190;6.576;2022-09-09T08:26:52;5.93;;;5.30;;
13349;SDS011;6744;53.190;6.576;2022-09-09T08:29:18;7.17;;;5.53;;
13349;SDS011;6744;53.190;6.576;2022-09-09T08:31:48;5.50;;;5.00;;
13349;SDS011;6744;53.190;6.576;2022-09-09T08:34:15;5.77;;;4.30;;
13349;SDS011;6744;53.190;6.576;2022-09-09T08:36:44;6.13;;;4.63;;
13349;SDS011;6744;53.190;6.576;2022-09-09T08:39:11;5.20;;;4.30;;
13349;SDS011;6744;53.190;6.576;2022-09-09T08:58:26;4.60;;;3.83;;
13349;SDS011;6744;53.190;6.576;2022-09-09T09:09:21;5.57;;;4.30;;
13349;SDS011;6744;53.190;6.576;2022-09-09T09:19:21;6.97;;;4.43;;
13349;SDS011;6744;53.190;6.576;2022-09-09T09:22:03;5.13;;;4.00;;
13349;SDS011;6744;53.190;6.576;2022-09-09T09:27:43;8.33;;;3.70;;
13349;SDS011;6744;53.190;6.576;2022-09-09T09:30:18;7.07;;;3.97;;
13349;SDS011;6744;53.190;6.576;2022-09-09T09:32:54;7.57;;;4.43;;
13349;SDS011;6744;53.190;6.576;2022-09-09T09:35:21;7.47;;;4.00;;
13349;SDS011;6744;53.190;6.576;2022-09-09T09:37:47;6.87;;;4.00;;
13349;SDS011;6744;53.190;6.576;2022-09-09T09:40:14;6.00;;;4.10;;
13349;SDS011;6744;53.190;6.576;2022-09-09T09:42:51;7.50;;;3.57;;
13349;SDS011;6744;53.190;6.576;2022-09-09T09:45:26;5.07;;;3.50;;
13349;SDS011;6744;53.190;6.576;2022-09-09T09:48:05;7.13;;;3.90;;
13349;SDS011;6744;53.190;6.576;2022-09-09T09:50:34;6.97;;;3.30;;
13349;SDS011;6744;53.190;6.576;2022-09-09T09:53:00;7.10;;;3.37;;
13349;SDS011;6744;53.190;6.576;2022-09-09T09:55:29;6.63;;;2.90;;
13349;SDS011;6744;53.190;6.576;2022-09-09T09:58:05;7.60;;;3.50;;
13349;SDS011;6744;53.190;6.576;2022-09-09T10:00:31;6.63;;;3.40;;
13349;SDS011;6744;53.190;6.576;2022-09-09T10:02:59;7.27;;;3.10;;
13349;SDS011;6744;53.190;6.576;2022-09-09T10:05:30;5.23;;;2.70;;
13349;SDS011;6744;53.190;6.576;2022-09-09T10:08:33;6.47;;;2.80;;
13349;SDS011;6744;53.190;6.576;2022-09-09T10:16:09;6.67;;;2.43;;
13349;SDS011;6744;53.190;6.576;2022-09-09T10:19:05;5.37;;;2.60;;
13349;SDS011;6744;53.190;6.576;2022-09-09T10:40:43;10.73;;;2.83;;
13349;SDS011;6744;53.190;6.576;2022-09-09T10:46:21;6.67;;;2.13;;
13349;SDS011;6744;53.190;6.576;2022-09-09T10:54:32;5.83;;;2.10;;
13349;SDS011;6744;53.190;6.576;2022-09-09T10:57:17;6.00;;;2.27;;
13349;SDS011;6744;53.190;6.576;2022-09-09T10:59:59;8.13;;;2.30;;
13349;SDS011;6744;53.190;6.576;2022-09-09T11:02:30;3.97;;;1.83;;
13349;SDS011;6744;53.190;6.576;2022-09-09T11:05:42;7.37;;;2.67;;
13349;SDS011;6744;53.190;6.576;2022-09-09T11:21:47;8.43;;;2.17;;
13349;SDS011;6744;53.190;6.576;2022-09-09T11:26:44;13.13;;;2.50;;
13349;SDS011;6744;53.190;6.576;2022-09-09T11:40:14;7.87;;;2.13;;
13349;SDS011;6744;53.190;6.576;2022-09-09T11:42:42;9.43;;;2.30;;
13349;SDS011;6744;53.190;6.576;2022-09-09T11:45:11;5.03;;;1.43;;
13349;SDS011;6744;53.190;6.576;2022-09-09T11:47:52;8.40;;;1.90;;
13349;SDS011;6744;53.190;6.576;2022-09-09T11:52:48;3.80;;;1.50;;
13349;SDS011;6744;53.190;6.576;2022-09-09T11:55:27;8.10;;;1.80;;
13349;SDS011;6744;53.190;6.576;2022-09-09T11:58:02;7.47;;;1.90;;
13349;SDS011;6744;53.190;6.576;2022-09-09T12:00:39;5.23;;;1.80;;
13349;SDS011;6744;53.190;6.576;2022-09-09T12:05:57;4.90;;;1.60;;
13349;SDS011;6744;53.190;6.576;2022-09-09T12:08:26;5.30;;;1.70;;
13349;SDS011;6744;53.190;6.576;2022-09-09T12:10:54;4.80;;;1.60;;
13349;SDS011;6744;53.190;6.576;2022-09-09T12:13:23;5.70;;;1.80;;
13349;SDS011;6744;53.190;6.576;2022-09-09T12:15:51;5.47;;;1.40;;
13349;SDS011;6744;53.190;6.576;2022-09-09T12:18:51;5.67;;;1.70;;
13349;SDS011;6744;53.190;6.576;2022-09-09T12:21:54;6.57;;;1.90;;
13349;SDS011;6744;53.190;6.576;2022-09-09T12:24:11;7.07;;;2.00;;
13349;SDS011;6744;53.190;6.576;2022-09-09T12:32:00;2.93;;;1.80;;
13349;SDS011;6744;53.190;6.576;2022-09-09T12:34:44;3.50;;;1.30;;
13349;SDS011;6744;53.190;6.576;2022-09-09T12:39:51;5.80;;;1.50;;
13349;SDS011;6744;53.190;6.576;2022-09-09T12:42:20;7.63;;;1.60;;
13349;SDS011;6744;53.190;6.576;2022-09-09T12:45:00;3.30;;;1.27;;
13349;SDS011;6744;53.190;6.576;2022-09-09T12:47:32;3.83;;;1.40;;
13349;SDS011;6744;53.190;6.576;2022-09-09T12:50:18;3.97;;;1.60;;
13349;SDS011;6744;53.190;6.576;2022-09-09T12:52:49;3.47;;;1.67;;
13349;SDS011;6744;53.190;6.576;2022-09-09T12:55:19;4.63;;;1.50;;
13349;SDS011;6744;53.190;6.576;2022-09-09T12:57:46;5.70;;;1.50;;
13349;SDS011;6744;53.190;6.576;2022-09-09T13:00:16;4.13;;;1.40;;
13349;SDS011;6744;53.190;6.576;2022-09-09T13:03:01;7.23;;;1.77;;
13349;SDS011;6744;53.190;6.576;2022-09-09T13:05:38;3.53;;;1.50;;
13349;SDS011;6744;53.190;6.576;2022-09-09T13:08:11;4.63;;;1.57;;
13349;SDS011;6744;53.190;6.576;2022-09-09T13:10:47;5.93;;;1.60;;
13349;SDS011;6744;53.190;6.576;2022-09-09T13:13:14;4.07;;;1.70;;
13349;SDS011;6744;53.190;6.576;2022-09-09T13:15:49;5.33;;;1.60;;
13349;SDS011;6744;53.190;6.576;2022-09-09T13:18:16;3.20;;;1.20;;
13349;SDS011;6744;53.190;6.576;2022-09-09T13:20:48;3.90;;;1.40;;
13349;SDS011;6744;53.190;6.576;2022-09-09T13:23:14;6.43;;;1.97;;
13349;SDS011;6744;53.190;6.576;2022-09-09T13:25:40;2.37;;;1.17;;
13349;SDS011;6744;53.190;6.576;2022-09-09T13:28:19;3.77;;;1.50;;
13349;SDS011;6744;53.190;6.576;2022-09-09T13:30:54;4.17;;;1.20;;
13349;SDS011;6744;53.190;6.576;2022-09-09T13:33:28;6.10;;;1.90;;
13349;SDS011;6744;53.190;6.576;2022-09-09T13:36:04;5.17;;;1.60;;
13349;SDS011;6744;53.190;6.576;2022-09-09T13:38:31;3.77;;;1.60;;
13349;SDS011;6744;53.190;6.576;2022-09-09T13:41:00;4.77;;;1.33;;
13349;SDS011;6744;53.190;6.576;2022-09-09T13:43:30;4.47;;;1.57;;
13349;SDS011;6744;53.190;6.576;2022-09-09T13:46:00;3.97;;;1.47;;
13349;SDS011;6744;53.190;6.576;2022-09-09T13:48:30;2.87;;;1.17;;
13349;SDS011;6744;53.190;6.576;2022-09-09T13:50:58;3.70;;;1.50;;
13349;SDS011;6744;53.190;6.576;2022-09-09T13:53:29;5.10;;;1.40;;
13349;SDS011;6744;53.190;6.576;2022-09-09T13:55:55;4.13;;;1.10;;
13349;SDS011;6744;53.190;6.576;2022-09-09T13:58:21;4.03;;;1.57;;
13349;SDS011;6744;53.190;6.576;2022-09-09T14:00:48;2.50;;;1.00;;
13349;SDS011;6744;53.190;6.576;2022-09-09T14:03:14;3.33;;;0.93;;
13349;SDS011;6744;53.190;6.576;2022-09-09T14:05:40;4.30;;;1.10;;
13349;SDS011;6744;53.190;6.576;2022-09-09T14:08:07;4.50;;;1.23;;
13349;SDS011;6744;53.190;6.576;2022-09-09T14:10:40;3.43;;;1.00;;
13349;SDS011;6744;53.190;6.576;2022-09-09T14:13:05;4.30;;;0.97;;
13349;SDS011;6744;53.190;6.576;2022-09-09T14:15:31;2.23;;;0.90;;
13349;SDS011;6744;53.190;6.576;2022-09-09T14:17:56;2.43;;;0.70;;
13349;SDS011;6744;53.190;6.576;2022-09-09T14:20:24;1.97;;;0.70;;
13349;SDS011;6744;53.190;6.576;2022-09-09T14:22:49;2.63;;;0.93;;
13349;SDS011;6744;53.190;6.576;2022-09-09T14:25:14;2.90;;;1.00;;
13349;SDS011;6744;53.190;6.576;2022-09-09T14:27:40;3.33;;;0.73;;
13349;SDS011;6744;53.190;6.576;2022-09-09T14:30:06;3.10;;;0.80;;
13349;SDS011;6744;53.190;6.576;2022-09-09T14:32:32;1.77;;;0.80;;
13349;SDS011;6744;53.190;6.576;2022-09-09T14:34:58;2.67;;;1.10;;
13349;SDS011;6744;53.190;6.576;2022-09-09T14:37:23;2.33;;;0.80;;
13349;SDS011;6744;53.190;6.576;2022-09-09T14:39:49;3.73;;;1.03;;
13349;SDS011;6744;53.190;6.576;2022-09-09T14:42:15;1.90;;;0.90;;
13349;SDS011;6744;53.190;6.576;2022-09-09T14:44:40;1.97;;;0.50;;
13349;SDS011;6744;53.190;6.576;2022-09-09T14:47:06;0.83;;;0.40;;
13349;SDS011;6744;53.190;6.576;2022-09-09T14:49:33;0.83;;;0.50;;
13349;SDS011;6744;53.190;6.576;2022-09-09T14:51:58;2.53;;;0.60;;
13349;SDS011;6744;53.190;6.576;2022-09-09T14:54:24;1.83;;;0.70;;
13349;SDS011;6744;53.190;6.576;2022-09-09T14:56:49;1.70;;;0.83;;
13349;SDS011;6744;53.190;6.576;2022-09-09T14:59:15;2.13;;;0.60;;
13349;SDS011;6744;53.190;6.576;2022-09-09T15:01:40;1.50;;;0.70;;
13349;SDS011;6744;53.190;6.576;2022-09-09T15:04:06;3.00;;;0.97;;
13349;SDS011;6744;53.190;6.576;2022-09-09T15:06:33;1.17;;;0.50;;
13349;SDS011;6744;53.190;6.576;2022-09-09T15:09:02;2.30;;;0.90;;
13349;SDS011;6744;53.190;6.576;2022-09-09T15:11:29;2.33;;;1.17;;
13349;SDS011;6744;53.190;6.576;2022-09-09T15:13:55;3.23;;;1.17;;
13349;SDS011;6744;53.190;6.576;2022-09-09T15:16:23;1.67;;;0.63;;
13349;SDS011;6744;53.190;6.576;2022-09-09T15:18:50;1.27;;;0.87;;
13349;SDS011;6744;53.190;6.576;2022-09-09T15:21:19;3.13;;;1.13;;
13349;SDS011;6744;53.190;6.576;2022-09-09T15:23:46;2.90;;;0.90;;
13349;SDS011;6744;53.190;6.576;2022-09-09T15:26:12;3.40;;;1.50;;
13349;SDS011;6744;53.190;6.576;2022-09-09T15:28:41;2.60;;;1.40;;
13349;SDS011;6744;53.190;6.576;2022-09-09T15:31:12;3.57;;;1.40;;
13349;SDS011;6744;53.190;6.576;2022-09-09T15:33:39;3.23;;;1.23;;
13349;SDS011;6744;53.190;6.576;2022-09-09T15:36:16;3.27;;;1.30;;
13349;SDS011;6744;53.190;6.576;2022-09-09T15:38:45;3.63;;;1.47;;
13349;SDS011;6744;53.190;6.576;2022-09-09T15:41:11;2.83;;;1.10;;
13349;SDS011;6744;53.190;6.576;2022-09-09T15:43:37;3.50;;;1.33;;
13349;SDS011;6744;53.190;6.576;2022-09-09T15:46:37;1.83;;;1.00;;
13349;SDS011;6744;53.190;6.576;2022-09-09T15:49:06;3.00;;;0.90;;
13349;SDS011;6744;53.190;6.576;2022-09-09T15:51:33;1.60;;;0.90;;
13349;SDS011;6744;53.190;6.576;2022-09-09T15:53:59;2.70;;;0.70;;
13349;SDS011;6744;53.190;6.576;2022-09-09T15:56:25;4.10;;;1.00;;
13349;SDS011;6744;53.190;6.576;2022-09-09T15:58:52;1.40;;;0.63;;
13349;SDS011;6744;53.190;6.576;2022-09-09T16:01:17;1.50;;;0.77;;
13349;SDS011;6744;53.190;6.576;2022-09-09T16:03:44;1.97;;;0.70;;
13349;SDS011;6744;53.190;6.576;2022-09-09T16:06:15;1.07;;;0.77;;
13349;SDS011;6744;53.190;6.576;2022-09-09T16:08:42;2.40;;;0.80;;
13349;SDS011;6744;53.190;6.576;2022-09-09T16:11:13;1.10;;;0.60;;
13349;SDS011;6744;53.190;6.576;2022-09-09T16:13:40;1.97;;;0.73;;
13349;SDS011;6744;53.190;6.576;2022-09-09T16:16:09;1.53;;;0.87;;
13349;SDS011;6744;53.190;6.576;2022-09-09T16:18:36;1.60;;;0.60;;
13349;SDS011;6744;53.190;6.576;2022-09-09T16:21:05;2.80;;;0.90;;
13349;SDS011;6744;53.190;6.576;2022-09-09T16:23:34;4.07;;;0.90;;
13349;SDS011;6744;53.190;6.576;2022-09-09T16:26:00;2.30;;;0.90;;
13349;SDS011;6744;53.190;6.576;2022-09-09T16:28:26;2.07;;;1.10;;
13349;SDS011;6744;53.190;6.576;2022-09-09T16:30:51;2.47;;;1.00;;
13349;SDS011;6744;53.190;6.576;2022-09-09T16:33:17;2.30;;;1.20;;
13349;SDS011;6744;53.190;6.576;2022-09-09T16:35:43;3.13;;;0.90;;
13349;SDS011;6744;53.190;6.576;2022-09-09T16:38:09;2.70;;;1.10;;
13349;SDS011;6744;53.190;6.576;2022-09-09T16:40:35;1.97;;;1.00;;
13349;SDS011;6744;53.190;6.576;2022-09-09T16:43:01;2.70;;;1.10;;
13349;SDS011;6744;53.190;6.576;2022-09-09T16:45:27;2.07;;;1.27;;
13349;SDS011;6744;53.190;6.576;2022-09-09T16:47:52;3.07;;;1.30;;
13349;SDS011;6744;53.190;6.576;2022-09-09T16:50:18;1.57;;;1.00;;
13349;SDS011;6744;53.190;6.576;2022-09-09T16:52:44;3.20;;;0.90;;
13349;SDS011;6744;53.190;6.576;2022-09-09T16:55:09;3.30;;;1.30;;
13349;SDS011;6744;53.190;6.576;2022-09-09T16:57:34;2.97;;;1.30;;
13349;SDS011;6744;53.190;6.576;2022-09-09T17:00:00;3.13;;;1.20;;
13349;SDS011;6744;53.190;6.576;2022-09-09T17:02:26;1.37;;;0.73;;
13349;SDS011;6744;53.190;6.576;2022-09-09T17:04:52;2.03;;;1.03;;
13349;SDS011;6744;53.190;6.576;2022-09-09T17:07:17;1.93;;;1.13;;
13349;SDS011;6744;53.190;6.576;2022-09-09T17:09:44;2.97;;;1.30;;
13349;SDS011;6744;53.190;6.576;2022-09-09T17:12:10;3.17;;;1.40;;
13349;SDS011;6744;53.190;6.576;2022-09-09T17:14:37;2.33;;;1.20;;
13349;SDS011;6744;53.190;6.576;2022-09-09T17:17:02;1.37;;;0.97;;
13349;SDS011;6744;53.190;6.576;2022-09-09T17:19:29;3.47;;;1.10;;
13349;SDS011;6744;53.190;6.576;2022-09-09T17:21:55;1.20;;;0.80;;
13349;SDS011;6744;53.190;6.576;2022-09-09T17:24:21;1.70;;;0.93;;
13349;SDS011;6744;53.190;6.576;2022-09-09T17:26:47;2.33;;;1.20;;
13349;SDS011;6744;53.190;6.576;2022-09-09T17:29:12;2.00;;;0.93;;
13349;SDS011;6744;53.190;6.576;2022-09-09T17:31:38;1.60;;;1.00;;
13349;SDS011;6744;53.190;6.576;2022-09-09T17:34:04;1.53;;;1.03;;
13349;SDS011;6744;53.190;6.576;2022-09-09T17:36:31;2.73;;;1.27;;
13349;SDS011;6744;53.190;6.576;2022-09-09T17:38:58;2.20;;;1.27;;
13349;SDS011;6744;53.190;6.576;2022-09-09T17:41:26;1.17;;;0.90;;
13349;SDS011;6744;53.190;6.576;2022-09-09T17:43:51;1.10;;;0.77;;
13349;SDS011;6744;53.190;6.576;2022-09-09T17:48:47;2.07;;;1.30;;